Дата Пункты Температура Давл., мм. Влажн., % Ветер Погодные явления
Воздуха Воды Направл. Скорость
30.08.19 09:00 Одесса 22.0 23.0 762 61 С 4 09 ГОДИН
30.08.19 06:00 Одесса 22.0 23.0 762 52 С 2 06 ГОДИН
30.08.19 03:00 Одесса 22.0 23.0 762 64 Пд-С 2 03 ГОДИНИ
29.08.19 09:00 Одесса 24.0 23.0 761 68 Пд-С 4 21 ГОДИНУ
29.08.19 06:00 Одесса 26.0 23.0 761 56 Пд-С 1 18 ГОДИН
29.08.19 03:00 Одесса 27.0 23.0 762 54 Пд-С 3 15 ГОДИН
29.08.19 12:00 Одесса 26.0 23.0 762 52 С 1 12 ГОДИН
29.08.19 09:00 Одесса 24.0 23.0 762 61 Пн-С 2 09 ГОДИН
28.08.19 09:00 Одесса 24.0 23.0 762 46 З 1 21 ГОДИНУ
28.08.19 06:00 Одесса 27.0 23.0 761 32 Пд 1 18 ГОДИН
28.08.19 03:00 Одесса 28.0 23.0 762 31 Пд 3 15 ГОДИН
28.08.19 12:00 Одесса 26.0 23.0 763 34 С 2 12 ГОДИН
28.08.19 09:00 Одесса 24.0 23.0 763 42 Пн 1 09 ГОДИН
28.08.19 06:00 Одесса 20.0 23.0 763 58 Пн 0 06 ГОДИН
28.08.19 03:00 Одесса 21.0 23.0 763 58 Пн-З 1 03 ГОДИНИ
27.08.19 09:00 Одесса 25.0 23.0 762 47 З 2 21 ГОДИНУ
27.08.19 06:00 Одесса 28.0 23.0 761 34 Пд 2 18 ГОДИН
27.08.19 03:00 Одесса 29.0 23.0 763 33 Пд 2 15 ГОДИН
27.08.19 12:00 Одесса 26.0 23.0 763 50 Пн 2 12 ГОДИН
27.08.19 09:00 Одесса 25.0 23.0 763 53 Пн-З 1 09 ГОДИН
Количество строк
1 2 3 4 5 6 7 8 9 10
Page 7 of 530